sensor_id;sensor_type;location;lat;lon;timestamp;P1;durP1;ratioP1;P2;durP2;ratioP2
18206;SDS011;9229;52.354;20.886;2023-02-13T00:01:45;39.30;;;18.92;;
18206;SDS011;9229;52.354;20.886;2023-02-13T00:06:47;41.22;;;17.10;;
18206;SDS011;9229;52.354;20.886;2023-02-13T00:11:51;49.92;;;20.90;;
18206;SDS011;9229;52.354;20.886;2023-02-13T00:16:53;48.80;;;19.38;;
18206;SDS011;9229;52.354;20.886;2023-02-13T00:21:56;33.25;;;15.95;;
18206;SDS011;9229;52.354;20.886;2023-02-13T00:27:00;34.50;;;16.15;;
18206;SDS011;9229;52.354;20.886;2023-02-13T00:32:02;41.25;;;15.57;;
18206;SDS011;9229;52.354;20.886;2023-02-13T00:37:05;37.13;;;15.63;;
18206;SDS011;9229;52.354;20.886;2023-02-13T00:42:08;40.78;;;15.35;;
18206;SDS011;9229;52.354;20.886;2023-02-13T00:47:10;30.67;;;14.88;;
18206;SDS011;9229;52.354;20.886;2023-02-13T00:52:13;39.65;;;15.90;;
18206;SDS011;9229;52.354;20.886;2023-02-13T00:57:18;34.90;;;14.98;;
18206;SDS011;9229;52.354;20.886;2023-02-13T01:02:20;38.45;;;14.02;;
18206;SDS011;9229;52.354;20.886;2023-02-13T01:07:22;26.45;;;13.73;;
18206;SDS011;9229;52.354;20.886;2023-02-13T01:12:27;30.50;;;13.68;;
18206;SDS011;9229;52.354;20.886;2023-02-13T01:17:29;28.40;;;13.45;;
18206;SDS011;9229;52.354;20.886;2023-02-13T01:22:32;30.05;;;14.40;;
18206;SDS011;9229;52.354;20.886;2023-02-13T01:27:36;30.75;;;12.23;;
18206;SDS011;9229;52.354;20.886;2023-02-13T01:32:38;25.83;;;12.68;;
18206;SDS011;9229;52.354;20.886;2023-02-13T01:37:41;28.65;;;13.38;;
18206;SDS011;9229;52.354;20.886;2023-02-13T01:42:45;34.53;;;13.10;;
18206;SDS011;9229;52.354;20.886;2023-02-13T01:47:48;40.33;;;16.55;;
18206;SDS011;9229;52.354;20.886;2023-02-13T01:52:54;32.88;;;15.45;;
18206;SDS011;9229;52.354;20.886;2023-02-13T01:58:04;25.45;;;11.77;;
18206;SDS011;9229;52.354;20.886;2023-02-13T02:03:10;21.90;;;11.80;;
18206;SDS011;9229;52.354;20.886;2023-02-13T02:08:16;27.55;;;11.98;;
18206;SDS011;9229;52.354;20.886;2023-02-13T02:13:26;22.02;;;10.48;;
18206;SDS011;9229;52.354;20.886;2023-02-13T02:18:35;24.40;;;10.32;;
18206;SDS011;9229;52.354;20.886;2023-02-13T02:23:43;21.85;;;11.45;;
18206;SDS011;9229;52.354;20.886;2023-02-13T02:29:20;20.98;;;10.77;;
18206;SDS011;9229;52.354;20.886;2023-02-13T02:34:39;22.38;;;10.27;;
18206;SDS011;9229;52.354;20.886;2023-02-13T02:39:49;20.85;;;10.18;;
18206;SDS011;9229;52.354;20.886;2023-02-13T02:45:04;28.83;;;11.88;;
18206;SDS011;9229;52.354;20.886;2023-02-13T02:50:18;24.02;;;10.85;;
18206;SDS011;9229;52.354;20.886;2023-02-13T02:55:34;24.85;;;10.93;;
18206;SDS011;9229;52.354;20.886;2023-02-13T03:00:41;17.15;;;10.10;;
18206;SDS011;9229;52.354;20.886;2023-02-13T03:06:02;22.58;;;10.70;;
18206;SDS011;9229;52.354;20.886;2023-02-13T03:11:14;21.38;;;11.25;;
18206;SDS011;9229;52.354;20.886;2023-02-13T03:16:34;19.90;;;11.00;;
18206;SDS011;9229;52.354;20.886;2023-02-13T03:21:56;18.95;;;9.35;;
18206;SDS011;9229;52.354;20.886;2023-02-13T03:27:22;24.38;;;10.05;;
18206;SDS011;9229;52.354;20.886;2023-02-13T03:32:54;15.75;;;9.52;;
18206;SDS011;9229;52.354;20.886;2023-02-13T03:38:09;23.95;;;11.70;;
18206;SDS011;9229;52.354;20.886;2023-02-13T03:43:16;22.52;;;12.23;;
18206;SDS011;9229;52.354;20.886;2023-02-13T03:48:21;22.27;;;9.98;;
18206;SDS011;9229;52.354;20.886;2023-02-13T03:53:48;23.65;;;11.13;;
18206;SDS011;9229;52.354;20.886;2023-02-13T03:58:56;24.08;;;10.38;;
18206;SDS011;9229;52.354;20.886;2023-02-13T04:04:20;23.80;;;11.45;;
18206;SDS011;9229;52.354;20.886;2023-02-13T04:09:27;22.23;;;10.38;;
18206;SDS011;9229;52.354;20.886;2023-02-13T04:14:32;22.42;;;10.70;;
18206;SDS011;9229;52.354;20.886;2023-02-13T04:19:39;23.77;;;11.10;;
18206;SDS011;9229;52.354;20.886;2023-02-13T04:24:44;25.42;;;11.15;;
18206;SDS011;9229;52.354;20.886;2023-02-13T04:29:46;23.42;;;11.30;;
18206;SDS011;9229;52.354;20.886;2023-02-13T04:34:49;21.45;;;10.75;;
18206;SDS011;9229;52.354;20.886;2023-02-13T04:39:52;17.20;;;10.55;;
18206;SDS011;9229;52.354;20.886;2023-02-13T04:44:54;21.23;;;11.10;;
18206;SDS011;9229;52.354;20.886;2023-02-13T04:49:57;22.45;;;11.82;;
18206;SDS011;9229;52.354;20.886;2023-02-13T04:55:00;23.38;;;11.10;;
18206;SDS011;9229;52.354;20.886;2023-02-13T05:00:02;25.25;;;11.23;;
18206;SDS011;9229;52.354;20.886;2023-02-13T05:05:05;23.63;;;11.10;;
18206;SDS011;9229;52.354;20.886;2023-02-13T05:10:10;19.13;;;10.07;;
18206;SDS011;9229;52.354;20.886;2023-02-13T05:15:13;21.25;;;10.60;;
18206;SDS011;9229;52.354;20.886;2023-02-13T05:20:15;20.88;;;11.38;;
18206;SDS011;9229;52.354;20.886;2023-02-13T05:25:20;25.95;;;10.93;;
18206;SDS011;9229;52.354;20.886;2023-02-13T05:30:23;24.77;;;11.55;;
18206;SDS011;9229;52.354;20.886;2023-02-13T05:35:25;20.95;;;10.30;;
18206;SDS011;9229;52.354;20.886;2023-02-13T05:40:29;19.42;;;10.90;;
18206;SDS011;9229;52.354;20.886;2023-02-13T05:45:31;21.38;;;10.32;;
18206;SDS011;9229;52.354;20.886;2023-02-13T05:50:33;17.92;;;10.02;;
18206;SDS011;9229;52.354;20.886;2023-02-13T05:55:37;17.63;;;9.90;;
18206;SDS011;9229;52.354;20.886;2023-02-13T06:00:39;19.92;;;10.23;;
18206;SDS011;9229;52.354;20.886;2023-02-13T06:05:41;22.33;;;10.55;;
18206;SDS011;9229;52.354;20.886;2023-02-13T06:10:45;18.80;;;10.82;;
18206;SDS011;9229;52.354;20.886;2023-02-13T06:15:49;18.92;;;9.63;;
18206;SDS011;9229;52.354;20.886;2023-02-13T06:20:51;24.50;;;10.00;;
18206;SDS011;9229;52.354;20.886;2023-02-13T06:25:54;19.48;;;10.15;;
18206;SDS011;9229;52.354;20.886;2023-02-13T06:30:56;22.15;;;10.60;;
18206;SDS011;9229;52.354;20.886;2023-02-13T06:36:01;26.88;;;11.98;;
18206;SDS011;9229;52.354;20.886;2023-02-13T06:41:05;24.50;;;10.50;;
18206;SDS011;9229;52.354;20.886;2023-02-13T06:46:13;18.00;;;10.02;;
18206;SDS011;9229;52.354;20.886;2023-02-13T06:51:29;18.17;;;10.18;;
18206;SDS011;9229;52.354;20.886;2023-02-13T06:56:33;12.85;;;9.10;;
18206;SDS011;9229;52.354;20.886;2023-02-13T07:01:35;20.08;;;9.50;;
18206;SDS011;9229;52.354;20.886;2023-02-13T07:06:37;19.25;;;10.10;;
18206;SDS011;9229;52.354;20.886;2023-02-13T07:11:40;26.45;;;9.27;;
18206;SDS011;9229;52.354;20.886;2023-02-13T07:16:43;16.42;;;9.73;;
18206;SDS011;9229;52.354;20.886;2023-02-13T07:21:45;19.75;;;8.60;;
18206;SDS011;9229;52.354;20.886;2023-02-13T07:26:48;18.25;;;9.77;;
18206;SDS011;9229;52.354;20.886;2023-02-13T07:31:51;18.08;;;9.75;;
18206;SDS011;9229;52.354;20.886;2023-02-13T07:36:53;17.70;;;9.32;;
18206;SDS011;9229;52.354;20.886;2023-02-13T07:41:56;15.18;;;9.75;;
18206;SDS011;9229;52.354;20.886;2023-02-13T07:47:00;16.63;;;8.32;;
18206;SDS011;9229;52.354;20.886;2023-02-13T07:52:02;14.73;;;8.82;;
18206;SDS011;9229;52.354;20.886;2023-02-13T07:57:09;14.20;;;8.43;;
18206;SDS011;9229;52.354;20.886;2023-02-13T08:02:13;13.45;;;8.45;;
18206;SDS011;9229;52.354;20.886;2023-02-13T08:07:16;17.33;;;8.95;;
18206;SDS011;9229;52.354;20.886;2023-02-13T08:12:20;11.32;;;8.25;;
18206;SDS011;9229;52.354;20.886;2023-02-13T08:17:22;11.45;;;7.72;;
18206;SDS011;9229;52.354;20.886;2023-02-13T08:22:25;15.82;;;8.10;;
18206;SDS011;9229;52.354;20.886;2023-02-13T08:27:28;11.57;;;7.90;;
18206;SDS011;9229;52.354;20.886;2023-02-13T08:32:30;14.30;;;8.60;;
18206;SDS011;9229;52.354;20.886;2023-02-13T08:37:32;11.15;;;8.00;;
18206;SDS011;9229;52.354;20.886;2023-02-13T08:42:37;15.35;;;8.75;;
18206;SDS011;9229;52.354;20.886;2023-02-13T08:47:39;15.88;;;8.70;;
18206;SDS011;9229;52.354;20.886;2023-02-13T08:52:41;15.18;;;7.72;;
18206;SDS011;9229;52.354;20.886;2023-02-13T08:57:45;12.68;;;7.68;;
18206;SDS011;9229;52.354;20.886;2023-02-13T09:02:47;9.35;;;7.80;;
18206;SDS011;9229;52.354;20.886;2023-02-13T09:07:49;16.67;;;8.80;;
18206;SDS011;9229;52.354;20.886;2023-02-13T09:12:52;17.45;;;7.82;;
18206;SDS011;9229;52.354;20.886;2023-02-13T09:17:55;8.30;;;6.53;;
18206;SDS011;9229;52.354;20.886;2023-02-13T09:22:57;14.00;;;7.32;;
18206;SDS011;9229;52.354;20.886;2023-02-13T09:28:00;9.63;;;6.60;;
18206;SDS011;9229;52.354;20.886;2023-02-13T09:33:02;8.23;;;6.63;;
18206;SDS011;9229;52.354;20.886;2023-02-13T09:38:12;8.35;;;6.13;;
18206;SDS011;9229;52.354;20.886;2023-02-13T09:43:16;11.07;;;6.22;;
18206;SDS011;9229;52.354;20.886;2023-02-13T09:48:23;12.52;;;6.50;;
18206;SDS011;9229;52.354;20.886;2023-02-13T09:53:30;11.05;;;6.18;;
18206;SDS011;9229;52.354;20.886;2023-02-13T09:58:40;8.55;;;6.85;;
18206;SDS011;9229;52.354;20.886;2023-02-13T10:03:45;11.05;;;7.80;;
18206;SDS011;9229;52.354;20.886;2023-02-13T10:08:56;8.85;;;6.65;;
18206;SDS011;9229;52.354;20.886;2023-02-13T10:14:08;8.13;;;6.75;;
18206;SDS011;9229;52.354;20.886;2023-02-13T10:19:18;12.82;;;7.63;;
18206;SDS011;9229;52.354;20.886;2023-02-13T10:24:33;10.43;;;7.20;;
18206;SDS011;9229;52.354;20.886;2023-02-13T10:29:40;14.18;;;7.90;;
18206;SDS011;9229;52.354;20.886;2023-02-13T10:35:03;13.80;;;7.72;;
18206;SDS011;9229;52.354;20.886;2023-02-13T10:40:19;16.02;;;7.97;;
18206;SDS011;9229;52.354;20.886;2023-02-13T10:45:27;15.10;;;8.52;;
18206;SDS011;9229;52.354;20.886;2023-02-13T10:50:47;21.48;;;11.57;;
18206;SDS011;9229;52.354;20.886;2023-02-13T10:56:08;14.32;;;9.23;;
18206;SDS011;9229;52.354;20.886;2023-02-13T11:01:26;13.85;;;8.10;;
18206;SDS011;9229;52.354;20.886;2023-02-13T11:06:36;13.68;;;9.02;;
18206;SDS011;9229;52.354;20.886;2023-02-13T11:11:43;11.02;;;8.13;;
18206;SDS011;9229;52.354;20.886;2023-02-13T11:16:48;9.02;;;8.13;;
18206;SDS011;9229;52.354;20.886;2023-02-13T11:21:55;13.35;;;8.60;;
18206;SDS011;9229;52.354;20.886;2023-02-13T11:27:00;17.13;;;9.57;;
18206;SDS011;9229;52.354;20.886;2023-02-13T11:32:20;12.70;;;8.63;;
18206;SDS011;9229;52.354;20.886;2023-02-13T11:37:24;17.27;;;9.23;;
18206;SDS011;9229;52.354;20.886;2023-02-13T11:42:28;16.17;;;8.75;;
18206;SDS011;9229;52.354;20.886;2023-02-13T11:47:35;11.38;;;8.60;;
18206;SDS011;9229;52.354;20.886;2023-02-13T11:52:38;12.52;;;8.55;;
18206;SDS011;9229;52.354;20.886;2023-02-13T11:57:40;14.75;;;8.68;;
18206;SDS011;9229;52.354;20.886;2023-02-13T12:02:44;14.35;;;9.38;;
18206;SDS011;9229;52.354;20.886;2023-02-13T12:07:50;15.10;;;7.97;;
18206;SDS011;9229;52.354;20.886;2023-02-13T12:12:55;17.85;;;8.75;;
18206;SDS011;9229;52.354;20.886;2023-02-13T12:18:03;12.70;;;7.70;;
18206;SDS011;9229;52.354;20.886;2023-02-13T12:23:16;15.13;;;7.60;;
18206;SDS011;9229;52.354;20.886;2023-02-13T12:28:33;11.93;;;7.55;;
18206;SDS011;9229;52.354;20.886;2023-02-13T12:33:55;11.00;;;7.95;;
18206;SDS011;9229;52.354;20.886;2023-02-13T12:39:16;12.82;;;7.35;;
18206;SDS011;9229;52.354;20.886;2023-02-13T12:55:34;8.18;;;6.15;;
18206;SDS011;9229;52.354;20.886;2023-02-13T13:00:48;9.07;;;6.22;;
18206;SDS011;9229;52.354;20.886;2023-02-13T13:11:29;10.07;;;6.50;;
18206;SDS011;9229;52.354;20.886;2023-02-13T13:16:45;8.65;;;6.25;;
18206;SDS011;9229;52.354;20.886;2023-02-13T13:21:56;7.15;;;5.57;;
18206;SDS011;9229;52.354;20.886;2023-02-13T13:27:02;5.72;;;4.63;;
18206;SDS011;9229;52.354;20.886;2023-02-13T13:32:13;6.80;;;4.90;;
18206;SDS011;9229;52.354;20.886;2023-02-13T13:37:23;9.00;;;5.07;;
18206;SDS011;9229;52.354;20.886;2023-02-13T13:42:37;5.55;;;3.97;;
18206;SDS011;9229;52.354;20.886;2023-02-13T13:47:48;5.88;;;4.30;;
18206;SDS011;9229;52.354;20.886;2023-02-13T13:53:08;6.55;;;3.80;;
18206;SDS011;9229;52.354;20.886;2023-02-13T13:58:20;5.28;;;4.53;;
18206;SDS011;9229;52.354;20.886;2023-02-13T14:03:24;8.15;;;4.85;;
18206;SDS011;9229;52.354;20.886;2023-02-13T14:08:55;7.13;;;5.53;;
18206;SDS011;9229;52.354;20.886;2023-02-13T14:19:53;8.63;;;5.45;;
18206;SDS011;9229;52.354;20.886;2023-02-13T14:24:58;8.00;;;5.70;;
18206;SDS011;9229;52.354;20.886;2023-02-13T14:30:02;9.40;;;6.03;;
18206;SDS011;9229;52.354;20.886;2023-02-13T14:35:13;8.82;;;5.95;;
18206;SDS011;9229;52.354;20.886;2023-02-13T14:45:53;9.15;;;6.10;;
18206;SDS011;9229;52.354;20.886;2023-02-13T14:50:57;9.18;;;5.78;;
18206;SDS011;9229;52.354;20.886;2023-02-13T14:56:01;11.10;;;5.70;;
18206;SDS011;9229;52.354;20.886;2023-02-13T15:01:15;9.90;;;6.38;;
18206;SDS011;9229;52.354;20.886;2023-02-13T15:06:25;6.70;;;5.95;;
18206;SDS011;9229;52.354;20.886;2023-02-13T15:11:34;9.63;;;6.38;;
18206;SDS011;9229;52.354;20.886;2023-02-13T15:16:42;9.68;;;6.45;;
18206;SDS011;9229;52.354;20.886;2023-02-13T15:21:51;13.07;;;6.95;;
18206;SDS011;9229;52.354;20.886;2023-02-13T15:26:59;14.27;;;8.25;;
18206;SDS011;9229;52.354;20.886;2023-02-13T15:32:17;10.95;;;6.88;;
18206;SDS011;9229;52.354;20.886;2023-02-13T15:37:21;15.70;;;7.45;;
18206;SDS011;9229;52.354;20.886;2023-02-13T15:42:24;12.70;;;7.20;;
18206;SDS011;9229;52.354;20.886;2023-02-13T15:47:30;15.98;;;6.82;;
18206;SDS011;9229;52.354;20.886;2023-02-13T15:52:34;13.95;;;7.55;;
18206;SDS011;9229;52.354;20.886;2023-02-13T15:57:38;17.38;;;8.13;;
18206;SDS011;9229;52.354;20.886;2023-02-13T16:02:45;13.13;;;7.40;;
18206;SDS011;9229;52.354;20.886;2023-02-13T16:07:51;16.80;;;8.25;;
18206;SDS011;9229;52.354;20.886;2023-02-13T16:12:56;18.73;;;9.00;;
18206;SDS011;9229;52.354;20.886;2023-02-13T16:18:01;15.18;;;8.00;;
18206;SDS011;9229;52.354;20.886;2023-02-13T16:23:05;11.10;;;7.90;;
18206;SDS011;9229;52.354;20.886;2023-02-13T16:28:16;10.82;;;7.63;;
18206;SDS011;9229;52.354;20.886;2023-02-13T16:33:22;12.55;;;7.68;;
18206;SDS011;9229;52.354;20.886;2023-02-13T16:38:30;13.15;;;7.32;;
18206;SDS011;9229;52.354;20.886;2023-02-13T16:43:35;11.98;;;7.32;;
18206;SDS011;9229;52.354;20.886;2023-02-13T16:48:40;14.90;;;7.90;;
18206;SDS011;9229;52.354;20.886;2023-02-13T16:53:42;14.00;;;7.90;;
18206;SDS011;9229;52.354;20.886;2023-02-13T16:58:44;12.77;;;7.30;;
18206;SDS011;9229;52.354;20.886;2023-02-13T17:03:48;17.55;;;7.88;;
18206;SDS011;9229;52.354;20.886;2023-02-13T17:08:51;10.50;;;7.07;;
18206;SDS011;9229;52.354;20.886;2023-02-13T17:13:53;10.43;;;7.05;;
18206;SDS011;9229;52.354;20.886;2023-02-13T17:18:57;10.85;;;6.82;;
18206;SDS011;9229;52.354;20.886;2023-02-13T17:24:00;8.52;;;6.22;;
18206;SDS011;9229;52.354;20.886;2023-02-13T17:29:04;8.68;;;5.88;;
18206;SDS011;9229;52.354;20.886;2023-02-13T17:34:09;8.52;;;5.63;;
18206;SDS011;9229;52.354;20.886;2023-02-13T17:39:13;10.52;;;6.10;;
18206;SDS011;9229;52.354;20.886;2023-02-13T17:44:15;14.10;;;6.40;;
18206;SDS011;9229;52.354;20.886;2023-02-13T17:49:18;8.90;;;6.78;;
18206;SDS011;9229;52.354;20.886;2023-02-13T17:54:20;25.08;;;9.25;;
18206;SDS011;9229;52.354;20.886;2023-02-13T17:59:24;11.38;;;8.07;;
18206;SDS011;9229;52.354;20.886;2023-02-13T18:04:29;9.68;;;6.60;;
18206;SDS011;9229;52.354;20.886;2023-02-13T18:09:32;11.07;;;7.13;;
18206;SDS011;9229;52.354;20.886;2023-02-13T18:14:34;10.40;;;6.88;;
18206;SDS011;9229;52.354;20.886;2023-02-13T18:19:43;11.48;;;7.32;;
18206;SDS011;9229;52.354;20.886;2023-02-13T18:24:46;10.75;;;6.95;;
18206;SDS011;9229;52.354;20.886;2023-02-13T18:29:48;11.68;;;6.95;;
18206;SDS011;9229;52.354;20.886;2023-02-13T18:34:52;12.77;;;7.43;;
18206;SDS011;9229;52.354;20.886;2023-02-13T18:39:54;10.68;;;7.70;;
18206;SDS011;9229;52.354;20.886;2023-02-13T18:44:58;11.25;;;7.82;;
18206;SDS011;9229;52.354;20.886;2023-02-13T18:50:02;28.90;;;12.40;;
18206;SDS011;9229;52.354;20.886;2023-02-13T18:55:04;36.72;;;14.35;;
18206;SDS011;9229;52.354;20.886;2023-02-13T19:00:09;21.58;;;10.70;;
18206;SDS011;9229;52.354;20.886;2023-02-13T19:05:15;18.08;;;9.30;;
18206;SDS011;9229;52.354;20.886;2023-02-13T19:10:17;17.38;;;9.02;;
18206;SDS011;9229;52.354;20.886;2023-02-13T19:15:20;25.42;;;9.85;;
18206;SDS011;9229;52.354;20.886;2023-02-13T19:20:24;16.15;;;8.60;;
18206;SDS011;9229;52.354;20.886;2023-02-13T19:25:26;14.48;;;7.70;;
18206;SDS011;9229;52.354;20.886;2023-02-13T19:30:28;9.05;;;7.35;;
18206;SDS011;9229;52.354;20.886;2023-02-13T19:35:34;8.57;;;6.25;;
18206;SDS011;9229;52.354;20.886;2023-02-13T19:40:36;14.50;;;8.13;;
18206;SDS011;9229;52.354;20.886;2023-02-13T19:45:38;17.50;;;10.90;;
18206;SDS011;9229;52.354;20.886;2023-02-13T19:50:42;21.13;;;12.50;;
18206;SDS011;9229;52.354;20.886;2023-02-13T19:55:44;14.88;;;7.53;;
18206;SDS011;9229;52.354;20.886;2023-02-13T20:00:47;32.17;;;14.85;;
18206;SDS011;9229;52.354;20.886;2023-02-13T20:05:51;33.65;;;16.70;;
18206;SDS011;9229;52.354;20.886;2023-02-13T20:10:53;20.33;;;9.43;;
18206;SDS011;9229;52.354;20.886;2023-02-13T20:15:56;64.30;;;22.92;;
18206;SDS011;9229;52.354;20.886;2023-02-13T20:21:01;48.90;;;27.30;;
18206;SDS011;9229;52.354;20.886;2023-02-13T20:26:07;33.17;;;19.17;;
18206;SDS011;9229;52.354;20.886;2023-02-13T20:31:41;11.98;;;7.18;;
18206;SDS011;9229;52.354;20.886;2023-02-13T20:36:45;14.32;;;7.55;;
18206;SDS011;9229;52.354;20.886;2023-02-13T20:41:48;19.00;;;6.85;;
18206;SDS011;9229;52.354;20.886;2023-02-13T20:46:51;13.98;;;9.30;;
18206;SDS011;9229;52.354;20.886;2023-02-13T20:51:57;12.23;;;6.85;;
18206;SDS011;9229;52.354;20.886;2023-02-13T20:56:59;12.15;;;8.65;;
18206;SDS011;9229;52.354;20.886;2023-02-13T21:02:03;20.40;;;10.00;;
18206;SDS011;9229;52.354;20.886;2023-02-13T21:07:12;15.23;;;8.50;;
18206;SDS011;9229;52.354;20.886;2023-02-13T21:12:18;7.60;;;5.95;;
18206;SDS011;9229;52.354;20.886;2023-02-13T21:17:20;9.95;;;6.35;;
18206;SDS011;9229;52.354;20.886;2023-02-13T21:22:23;12.93;;;6.63;;
18206;SDS011;9229;52.354;20.886;2023-02-13T21:27:25;14.52;;;7.10;;
18206;SDS011;9229;52.354;20.886;2023-02-13T21:32:27;22.27;;;9.27;;
18206;SDS011;9229;52.354;20.886;2023-02-13T21:37:32;15.23;;;8.55;;
18206;SDS011;9229;52.354;20.886;2023-02-13T21:42:35;12.13;;;7.03;;
18206;SDS011;9229;52.354;20.886;2023-02-13T21:47:38;20.92;;;9.73;;
18206;SDS011;9229;52.354;20.886;2023-02-13T21:52:43;16.50;;;8.18;;
18206;SDS011;9229;52.354;20.886;2023-02-13T21:57:47;41.05;;;17.48;;
18206;SDS011;9229;52.354;20.886;2023-02-13T22:02:49;23.27;;;11.27;;
18206;SDS011;9229;52.354;20.886;2023-02-13T22:07:52;28.88;;;10.82;;
18206;SDS011;9229;52.354;20.886;2023-02-13T22:13:13;35.22;;;12.93;;
18206;SDS011;9229;52.354;20.886;2023-02-13T22:18:16;27.27;;;10.48;;
18206;SDS011;9229;52.354;20.886;2023-02-13T22:23:20;43.60;;;16.88;;
18206;SDS011;9229;52.354;20.886;2023-02-13T22:28:22;44.78;;;16.30;;
18206;SDS011;9229;52.354;20.886;2023-02-13T22:33:25;12.93;;;7.10;;
18206;SDS011;9229;52.354;20.886;2023-02-13T22:38:31;11.23;;;6.35;;
18206;SDS011;9229;52.354;20.886;2023-02-13T22:43:33;13.90;;;8.52;;
18206;SDS011;9229;52.354;20.886;2023-02-13T22:48:36;19.35;;;10.80;;
18206;SDS011;9229;52.354;20.886;2023-02-13T22:53:40;14.63;;;6.32;;
18206;SDS011;9229;52.354;20.886;2023-02-13T22:58:43;14.10;;;7.68;;
18206;SDS011;9229;52.354;20.886;2023-02-13T23:03:45;10.43;;;6.53;;
18206;SDS011;9229;52.354;20.886;2023-02-13T23:08:48;8.60;;;6.18;;
18206;SDS011;9229;52.354;20.886;2023-02-13T23:13:56;7.82;;;6.13;;
18206;SDS011;9229;52.354;20.886;2023-02-13T23:18:59;14.63;;;6.50;;
18206;SDS011;9229;52.354;20.886;2023-02-13T23:24:03;11.68;;;6.13;;
18206;SDS011;9229;52.354;20.886;2023-02-13T23:29:06;13.65;;;6.13;;
18206;SDS011;9229;52.354;20.886;2023-02-13T23:34:08;8.23;;;6.03;;
18206;SDS011;9229;52.354;20.886;2023-02-13T23:39:17;10.82;;;6.18;;
18206;SDS011;9229;52.354;20.886;2023-02-13T23:44:19;10.60;;;6.25;;
18206;SDS011;9229;52.354;20.886;2023-02-13T23:49:23;7.32;;;5.88;;
18206;SDS011;9229;52.354;20.886;2023-02-13T23:54:26;12.65;;;6.60;;
18206;SDS011;9229;52.354;20.886;2023-02-13T23:59:28;9.60;;;6.32;;
